sensor_id;sensor_type;location;lat;lon;timestamp;P1;durP1;ratioP1;P2;durP2;ratioP2
61338;SDS011;47213;52.362;4.606;2023-07-16T00:01:28;17.10;;;5.20;;
61338;SDS011;47213;52.362;4.606;2023-07-16T00:06:27;17.10;;;5.20;;
61338;SDS011;47213;52.362;4.606;2023-07-16T00:26:27;16.50;;;5.70;;
61338;SDS011;47213;52.362;4.606;2023-07-16T00:31:27;16.00;;;5.50;;
61338;SDS011;47213;52.362;4.606;2023-07-16T00:36:27;16.00;;;5.50;;
61338;SDS011;47213;52.362;4.606;2023-07-16T00:46:28;13.50;;;4.30;;
61338;SDS011;47213;52.362;4.606;2023-07-16T00:56:28;11.60;;;4.50;;
61338;SDS011;47213;52.362;4.606;2023-07-16T01:01:28;13.20;;;4.50;;
61338;SDS011;47213;52.362;4.606;2023-07-16T01:21:34;20.50;;;6.50;;
61338;SDS011;47213;52.362;4.606;2023-07-16T01:36:28;19.20;;;6.70;;
61338;SDS011;47213;52.362;4.606;2023-07-16T01:41:28;20.20;;;7.00;;
61338;SDS011;47213;52.362;4.606;2023-07-16T01:46:28;20.20;;;7.00;;
61338;SDS011;47213;52.362;4.606;2023-07-16T02:01:28;24.10;;;8.10;;
61338;SDS011;47213;52.362;4.606;2023-07-16T02:06:28;24.10;;;8.10;;
61338;SDS011;47213;52.362;4.606;2023-07-16T02:11:28;22.60;;;8.10;;
61338;SDS011;47213;52.362;4.606;2023-07-16T02:16:28;22.60;;;8.10;;
61338;SDS011;47213;52.362;4.606;2023-07-16T02:26:28;18.90;;;7.60;;
61338;SDS011;47213;52.362;4.606;2023-07-16T02:31:28;17.90;;;6.70;;
61338;SDS011;47213;52.362;4.606;2023-07-16T02:46:28;16.90;;;6.80;;
61338;SDS011;47213;52.362;4.606;2023-07-16T02:51:28;14.30;;;5.90;;
61338;SDS011;47213;52.362;4.606;2023-07-16T02:56:28;14.30;;;5.90;;
61338;SDS011;47213;52.362;4.606;2023-07-16T03:06:28;16.50;;;7.30;;
61338;SDS011;47213;52.362;4.606;2023-07-16T03:11:28;21.40;;;8.00;;
61338;SDS011;47213;52.362;4.606;2023-07-16T03:16:28;21.40;;;8.00;;
61338;SDS011;47213;52.362;4.606;2023-07-16T03:26:28;20.40;;;9.20;;
61338;SDS011;47213;52.362;4.606;2023-07-16T03:41:28;22.10;;;9.10;;
61338;SDS011;47213;52.362;4.606;2023-07-16T03:51:28;19.20;;;8.60;;
61338;SDS011;47213;52.362;4.606;2023-07-16T04:01:28;18.00;;;7.30;;
61338;SDS011;47213;52.362;4.606;2023-07-16T04:11:28;15.70;;;6.60;;
61338;SDS011;47213;52.362;4.606;2023-07-16T04:16:28;15.70;;;6.60;;
61338;SDS011;47213;52.362;4.606;2023-07-16T04:21:28;15.10;;;6.40;;
61338;SDS011;47213;52.362;4.606;2023-07-16T04:31:28;14.40;;;6.60;;
61338;SDS011;47213;52.362;4.606;2023-07-16T04:36:28;14.40;;;6.60;;
61338;SDS011;47213;52.362;4.606;2023-07-16T04:46:28;15.90;;;5.90;;
61338;SDS011;47213;52.362;4.606;2023-07-16T04:51:28;19.70;;;7.10;;
61338;SDS011;47213;52.362;4.606;2023-07-16T05:01:28;18.70;;;7.60;;
61338;SDS011;47213;52.362;4.606;2023-07-16T05:11:28;19.90;;;7.40;;
61338;SDS011;47213;52.362;4.606;2023-07-16T05:16:28;19.90;;;7.40;;
61338;SDS011;47213;52.362;4.606;2023-07-16T05:21:28;18.60;;;8.50;;
61338;SDS011;47213;52.362;4.606;2023-07-16T05:36:28;17.70;;;7.80;;
61338;SDS011;47213;52.362;4.606;2023-07-16T05:41:28;16.70;;;7.50;;
61338;SDS011;47213;52.362;4.606;2023-07-16T05:51:28;15.70;;;6.80;;
61338;SDS011;47213;52.362;4.606;2023-07-16T05:56:28;15.70;;;6.80;;
61338;SDS011;47213;52.362;4.606;2023-07-16T06:01:28;17.70;;;7.30;;
61338;SDS011;47213;52.362;4.606;2023-07-16T06:06:30;17.70;;;7.30;;
61338;SDS011;47213;52.362;4.606;2023-07-16T06:16:28;17.90;;;7.10;;
61338;SDS011;47213;52.362;4.606;2023-07-16T06:21:28;16.30;;;6.90;;
61338;SDS011;47213;52.362;4.606;2023-07-16T06:26:28;16.30;;;6.90;;
61338;SDS011;47213;52.362;4.606;2023-07-16T06:51:28;14.90;;;6.20;;
61338;SDS011;47213;52.362;4.606;2023-07-16T06:56:28;14.90;;;6.20;;
61338;SDS011;47213;52.362;4.606;2023-07-16T07:01:28;16.30;;;6.70;;
61338;SDS011;47213;52.362;4.606;2023-07-16T07:06:28;16.30;;;6.70;;
61338;SDS011;47213;52.362;4.606;2023-07-16T07:16:29;17.30;;;6.00;;
61338;SDS011;47213;52.362;4.606;2023-07-16T07:21:29;15.80;;;6.80;;
61338;SDS011;47213;52.362;4.606;2023-07-16T07:26:29;15.80;;;6.80;;
61338;SDS011;47213;52.362;4.606;2023-07-16T07:31:29;16.80;;;7.20;;
61338;SDS011;47213;52.362;4.606;2023-07-16T07:36:29;16.80;;;7.20;;
61338;SDS011;47213;52.362;4.606;2023-07-16T07:41:29;24.10;;;7.60;;
61338;SDS011;47213;52.362;4.606;2023-07-16T07:46:29;24.10;;;7.60;;
61338;SDS011;47213;52.362;4.606;2023-07-16T07:51:29;20.20;;;7.80;;
61338;SDS011;47213;52.362;4.606;2023-07-16T07:56:29;20.20;;;7.80;;
61338;SDS011;47213;52.362;4.606;2023-07-16T08:01:29;16.60;;;6.90;;
61338;SDS011;47213;52.362;4.606;2023-07-16T08:06:29;16.60;;;6.90;;
61338;SDS011;47213;52.362;4.606;2023-07-16T08:11:29;16.10;;;6.70;;
61338;SDS011;47213;52.362;4.606;2023-07-16T08:26:29;17.20;;;6.10;;
61338;SDS011;47213;52.362;4.606;2023-07-16T08:31:29;17.90;;;6.20;;
61338;SDS011;47213;52.362;4.606;2023-07-16T08:36:29;17.90;;;6.20;;
61338;SDS011;47213;52.362;4.606;2023-07-16T08:41:29;16.40;;;4.90;;
61338;SDS011;47213;52.362;4.606;2023-07-16T08:51:30;15.40;;;4.80;;
61338;SDS011;47213;52.362;4.606;2023-07-16T08:56:29;15.40;;;4.80;;
61338;SDS011;47213;52.362;4.606;2023-07-16T09:01:29;16.90;;;5.40;;
61338;SDS011;47213;52.362;4.606;2023-07-16T09:06:29;16.90;;;5.40;;
61338;SDS011;47213;52.362;4.606;2023-07-16T09:11:29;17.00;;;5.30;;
61338;SDS011;47213;52.362;4.606;2023-07-16T09:16:33;17.00;;;5.30;;
61338;SDS011;47213;52.362;4.606;2023-07-16T09:26:29;17.70;;;6.60;;
61338;SDS011;47213;52.362;4.606;2023-07-16T09:31:29;16.60;;;5.70;;
61338;SDS011;47213;52.362;4.606;2023-07-16T09:36:29;16.60;;;5.70;;
61338;SDS011;47213;52.362;4.606;2023-07-16T09:41:29;13.10;;;4.20;;
61338;SDS011;47213;52.362;4.606;2023-07-16T09:46:29;13.10;;;4.20;;
61338;SDS011;47213;52.362;4.606;2023-07-16T09:56:34;15.80;;;4.20;;
61338;SDS011;47213;52.362;4.606;2023-07-16T10:01:29;13.90;;;4.10;;
61338;SDS011;47213;52.362;4.606;2023-07-16T10:06:29;13.90;;;4.10;;
61338;SDS011;47213;52.362;4.606;2023-07-16T10:11:36;13.00;;;3.90;;
61338;SDS011;47213;52.362;4.606;2023-07-16T10:16:35;13.00;;;3.90;;
61338;SDS011;47213;52.362;4.606;2023-07-16T10:21:36;11.80;;;3.20;;
61338;SDS011;47213;52.362;4.606;2023-07-16T10:26:29;11.80;;;3.20;;
61338;SDS011;47213;52.362;4.606;2023-07-16T10:31:32;9.70;;;2.70;;
61338;SDS011;47213;52.362;4.606;2023-07-16T10:36:29;9.70;;;2.70;;
61338;SDS011;47213;52.362;4.606;2023-07-16T10:41:31;15.60;;;4.20;;
61338;SDS011;47213;52.362;4.606;2023-07-16T10:51:29;19.80;;;4.20;;
61338;SDS011;47213;52.362;4.606;2023-07-16T10:56:29;19.80;;;4.20;;
61338;SDS011;47213;52.362;4.606;2023-07-16T11:01:33;12.10;;;3.50;;
61338;SDS011;47213;52.362;4.606;2023-07-16T11:06:29;12.10;;;3.50;;
61338;SDS011;47213;52.362;4.606;2023-07-16T11:11:29;15.70;;;3.20;;
61338;SDS011;47213;52.362;4.606;2023-07-16T11:16:32;15.70;;;3.20;;
61338;SDS011;47213;52.362;4.606;2023-07-16T11:21:29;12.60;;;2.80;;
61338;SDS011;47213;52.362;4.606;2023-07-16T11:26:29;12.60;;;2.80;;
61338;SDS011;47213;52.362;4.606;2023-07-16T11:31:38;13.40;;;2.70;;
61338;SDS011;47213;52.362;4.606;2023-07-16T11:36:29;13.40;;;2.70;;
61338;SDS011;47213;52.362;4.606;2023-07-16T11:41:30;9.80;;;2.00;;
61338;SDS011;47213;52.362;4.606;2023-07-16T11:46:32;9.80;;;2.00;;
61338;SDS011;47213;52.362;4.606;2023-07-16T11:51:29;14.30;;;2.00;;
61338;SDS011;47213;52.362;4.606;2023-07-16T11:56:29;14.30;;;2.00;;
61338;SDS011;47213;52.362;4.606;2023-07-16T12:01:29;11.60;;;2.50;;
61338;SDS011;47213;52.362;4.606;2023-07-16T12:06:29;11.60;;;2.50;;
61338;SDS011;47213;52.362;4.606;2023-07-16T12:16:29;10.00;;;2.20;;
61338;SDS011;47213;52.362;4.606;2023-07-16T12:26:29;13.10;;;2.40;;
61338;SDS011;47213;52.362;4.606;2023-07-16T12:31:30;10.70;;;2.10;;
61338;SDS011;47213;52.362;4.606;2023-07-16T12:46:29;13.30;;;2.40;;
61338;SDS011;47213;52.362;4.606;2023-07-16T12:51:30;14.10;;;2.70;;
61338;SDS011;47213;52.362;4.606;2023-07-16T12:56:29;14.10;;;2.70;;
61338;SDS011;47213;52.362;4.606;2023-07-16T13:01:29;10.80;;;2.10;;
61338;SDS011;47213;52.362;4.606;2023-07-16T13:11:30;10.60;;;2.30;;
61338;SDS011;47213;52.362;4.606;2023-07-16T13:16:30;10.60;;;2.30;;
61338;SDS011;47213;52.362;4.606;2023-07-16T13:21:30;12.90;;;2.70;;
61338;SDS011;47213;52.362;4.606;2023-07-16T13:26:30;12.90;;;2.70;;
61338;SDS011;47213;52.362;4.606;2023-07-16T13:31:30;12.90;;;2.60;;
61338;SDS011;47213;52.362;4.606;2023-07-16T13:41:30;12.50;;;2.60;;
61338;SDS011;47213;52.362;4.606;2023-07-16T13:51:30;13.00;;;2.40;;
61338;SDS011;47213;52.362;4.606;2023-07-16T13:56:30;13.00;;;2.40;;
61338;SDS011;47213;52.362;4.606;2023-07-16T14:01:30;11.50;;;2.30;;
61338;SDS011;47213;52.362;4.606;2023-07-16T14:11:30;13.70;;;2.60;;
61338;SDS011;47213;52.362;4.606;2023-07-16T14:16:30;13.70;;;2.60;;
61338;SDS011;47213;52.362;4.606;2023-07-16T14:26:30;12.80;;;2.50;;
61338;SDS011;47213;52.362;4.606;2023-07-16T14:31:30;16.50;;;2.80;;
61338;SDS011;47213;52.362;4.606;2023-07-16T14:36:30;16.50;;;2.80;;
61338;SDS011;47213;52.362;4.606;2023-07-16T14:46:30;13.80;;;2.50;;
61338;SDS011;47213;52.362;4.606;2023-07-16T14:51:30;11.50;;;2.10;;
61338;SDS011;47213;52.362;4.606;2023-07-16T14:56:30;11.50;;;2.10;;
61338;SDS011;47213;52.362;4.606;2023-07-16T15:01:30;13.10;;;2.60;;
61338;SDS011;47213;52.362;4.606;2023-07-16T15:06:30;13.10;;;2.60;;
61338;SDS011;47213;52.362;4.606;2023-07-16T15:11:30;13.20;;;3.10;;
61338;SDS011;47213;52.362;4.606;2023-07-16T15:16:30;13.20;;;3.10;;
61338;SDS011;47213;52.362;4.606;2023-07-16T15:21:30;14.60;;;3.00;;
61338;SDS011;47213;52.362;4.606;2023-07-16T15:26:30;14.60;;;3.00;;
61338;SDS011;47213;52.362;4.606;2023-07-16T15:31:30;12.00;;;2.70;;
61338;SDS011;47213;52.362;4.606;2023-07-16T15:36:30;12.00;;;2.70;;
61338;SDS011;47213;52.362;4.606;2023-07-16T15:41:30;18.20;;;3.40;;
61338;SDS011;47213;52.362;4.606;2023-07-16T15:46:30;18.20;;;3.40;;
61338;SDS011;47213;52.362;4.606;2023-07-16T16:01:30;14.30;;;3.40;;
61338;SDS011;47213;52.362;4.606;2023-07-16T16:06:31;14.30;;;3.40;;
61338;SDS011;47213;52.362;4.606;2023-07-16T16:11:30;13.40;;;2.20;;
61338;SDS011;47213;52.362;4.606;2023-07-16T16:16:30;13.40;;;2.20;;
61338;SDS011;47213;52.362;4.606;2023-07-16T16:21:30;13.00;;;2.50;;
61338;SDS011;47213;52.362;4.606;2023-07-16T16:26:30;13.00;;;2.50;;
61338;SDS011;47213;52.362;4.606;2023-07-16T16:31:30;23.00;;;10.10;;
61338;SDS011;47213;52.362;4.606;2023-07-16T16:36:30;23.00;;;10.10;;
61338;SDS011;47213;52.362;4.606;2023-07-16T16:46:30;19.70;;;7.10;;
61338;SDS011;47213;52.362;4.606;2023-07-16T16:51:30;11.60;;;3.10;;
61338;SDS011;47213;52.362;4.606;2023-07-16T16:56:30;11.60;;;3.10;;
61338;SDS011;47213;52.362;4.606;2023-07-16T17:01:30;12.70;;;3.90;;
61338;SDS011;47213;52.362;4.606;2023-07-16T17:11:30;9.50;;;2.60;;
61338;SDS011;47213;52.362;4.606;2023-07-16T17:21:30;10.10;;;1.90;;
61338;SDS011;47213;52.362;4.606;2023-07-16T17:31:30;9.80;;;2.00;;
61338;SDS011;47213;52.362;4.606;2023-07-16T17:36:30;9.80;;;2.00;;
61338;SDS011;47213;52.362;4.606;2023-07-16T17:41:30;8.30;;;1.90;;
61338;SDS011;47213;52.362;4.606;2023-07-16T17:46:30;8.30;;;1.90;;
61338;SDS011;47213;52.362;4.606;2023-07-16T18:01:32;10.60;;;2.00;;
61338;SDS011;47213;52.362;4.606;2023-07-16T18:06:30;10.60;;;2.00;;
61338;SDS011;47213;52.362;4.606;2023-07-16T18:11:31;11.00;;;2.30;;
61338;SDS011;47213;52.362;4.606;2023-07-16T18:16:30;11.00;;;2.30;;
61338;SDS011;47213;52.362;4.606;2023-07-16T18:21:30;12.90;;;2.30;;
61338;SDS011;47213;52.362;4.606;2023-07-16T18:31:31;10.60;;;2.20;;
61338;SDS011;47213;52.362;4.606;2023-07-16T18:46:30;13.20;;;2.70;;
61338;SDS011;47213;52.362;4.606;2023-07-16T18:51:30;14.20;;;2.80;;
61338;SDS011;47213;52.362;4.606;2023-07-16T19:06:32;13.90;;;2.80;;
61338;SDS011;47213;52.362;4.606;2023-07-16T19:11:31;16.00;;;3.10;;
61338;SDS011;47213;52.362;4.606;2023-07-16T19:16:30;16.00;;;3.10;;
61338;SDS011;47213;52.362;4.606;2023-07-16T19:21:31;14.40;;;2.80;;
61338;SDS011;47213;52.362;4.606;2023-07-16T19:31:30;11.90;;;2.40;;
61338;SDS011;47213;52.362;4.606;2023-07-16T19:36:31;11.90;;;2.40;;
61338;SDS011;47213;52.362;4.606;2023-07-16T19:41:31;14.80;;;2.70;;
61338;SDS011;47213;52.362;4.606;2023-07-16T19:46:31;14.80;;;2.70;;
61338;SDS011;47213;52.362;4.606;2023-07-16T19:51:31;14.50;;;3.10;;
61338;SDS011;47213;52.362;4.606;2023-07-16T19:56:31;14.50;;;3.10;;
61338;SDS011;47213;52.362;4.606;2023-07-16T20:06:31;12.10;;;2.60;;
61338;SDS011;47213;52.362;4.606;2023-07-16T20:11:31;14.70;;;2.90;;
61338;SDS011;47213;52.362;4.606;2023-07-16T20:16:31;14.70;;;2.90;;
61338;SDS011;47213;52.362;4.606;2023-07-16T20:26:31;15.40;;;3.00;;
61338;SDS011;47213;52.362;4.606;2023-07-16T20:41:31;13.30;;;3.00;;
61338;SDS011;47213;52.362;4.606;2023-07-16T20:56:31;14.50;;;2.90;;
61338;SDS011;47213;52.362;4.606;2023-07-16T21:01:31;11.20;;;2.80;;
61338;SDS011;47213;52.362;4.606;2023-07-16T21:06:31;11.20;;;2.80;;
61338;SDS011;47213;52.362;4.606;2023-07-16T21:21:31;12.70;;;2.70;;
61338;SDS011;47213;52.362;4.606;2023-07-16T21:26:31;12.70;;;2.70;;
61338;SDS011;47213;52.362;4.606;2023-07-16T21:31:31;13.30;;;2.70;;
61338;SDS011;47213;52.362;4.606;2023-07-16T21:41:31;10.50;;;2.50;;
61338;SDS011;47213;52.362;4.606;2023-07-16T21:46:31;10.50;;;2.50;;
61338;SDS011;47213;52.362;4.606;2023-07-16T21:51:31;12.70;;;3.10;;
61338;SDS011;47213;52.362;4.606;2023-07-16T22:11:33;14.00;;;2.90;;
61338;SDS011;47213;52.362;4.606;2023-07-16T22:16:32;14.00;;;2.90;;
61338;SDS011;47213;52.362;4.606;2023-07-16T22:21:32;11.90;;;2.80;;
61338;SDS011;47213;52.362;4.606;2023-07-16T22:26:31;11.90;;;2.80;;
61338;SDS011;47213;52.362;4.606;2023-07-16T22:31:31;12.60;;;2.80;;
61338;SDS011;47213;52.362;4.606;2023-07-16T22:41:31;12.70;;;3.30;;
61338;SDS011;47213;52.362;4.606;2023-07-16T22:51:31;12.10;;;2.90;;
61338;SDS011;47213;52.362;4.606;2023-07-16T22:56:31;12.10;;;2.90;;
61338;SDS011;47213;52.362;4.606;2023-07-16T23:01:31;13.70;;;3.10;;
61338;SDS011;47213;52.362;4.606;2023-07-16T23:06:31;13.70;;;3.10;;
61338;SDS011;47213;52.362;4.606;2023-07-16T23:11:31;15.20;;;3.30;;
61338;SDS011;47213;52.362;4.606;2023-07-16T23:16:31;15.20;;;3.30;;
61338;SDS011;47213;52.362;4.606;2023-07-16T23:21:31;13.70;;;3.20;;
61338;SDS011;47213;52.362;4.606;2023-07-16T23:31:31;12.60;;;2.80;;
61338;SDS011;47213;52.362;4.606;2023-07-16T23:36:31;12.60;;;2.80;;
61338;SDS011;47213;52.362;4.606;2023-07-16T23:41:32;13.50;;;2.80;;
61338;SDS011;47213;52.362;4.606;2023-07-16T23:46:31;13.50;;;2.80;;
61338;SDS011;47213;52.362;4.606;2023-07-16T23:51:31;13.40;;;2.80;;
61338;SDS011;47213;52.362;4.606;2023-07-16T23:56:31;13.40;;;2.80;;
